sensor_id;sensor_type;location;lat;lon;timestamp;pressure;altitude;pressure_sealevel;temperature;humidity
3796;BME280;1913;50.660;7.834;2023-05-12T00:01:10;150847.28;;;11.36;100.00
3796;BME280;1913;50.660;7.834;2023-05-12T00:03:35;150837.22;;;11.32;100.00
3796;BME280;1913;50.660;7.834;2023-05-12T00:06:00;150863.63;;;11.42;100.00
3796;BME280;1913;50.660;7.834;2023-05-12T00:08:29;150840.97;;;11.33;100.00
3796;BME280;1913;50.660;7.834;2023-05-12T00:10:55;150853.53;;;11.38;100.00
3796;BME280;1913;50.660;7.834;2023-05-12T00:13:21;150879.94;;;11.49;100.00
3796;BME280;1913;50.660;7.834;2023-05-12T00:15:48;150905.09;;;11.59;100.00
3796;BME280;1913;50.660;7.834;2023-05-12T00:18:14;150892.53;;;11.54;100.00
3796;BME280;1913;50.660;7.834;2023-05-12T00:20:39;150908.88;;;11.61;100.00
3796;BME280;1913;50.660;7.834;2023-05-12T00:23:04;150918.94;;;11.65;100.00
3796;BME280;1913;50.660;7.834;2023-05-12T00:25:30;150940.28;;;11.73;100.00
3796;BME280;1913;50.660;7.834;2023-05-12T00:27:55;150912.63;;;11.62;100.00
3796;BME280;1913;50.660;7.834;2023-05-12T00:30:20;150922.69;;;11.66;100.00
3796;BME280;1913;50.660;7.834;2023-05-12T00:32:46;150936.53;;;11.72;100.00
3796;BME280;1913;50.660;7.834;2023-05-12T00:35:11;150922.69;;;11.66;100.00
3796;BME280;1913;50.660;7.834;2023-05-12T00:37:37;150930.25;;;11.69;100.00
3796;BME280;1913;50.660;7.834;2023-05-12T00:40:02;150924.00;;;11.67;100.00
3796;BME280;1913;50.660;7.834;2023-05-12T00:42:29;150922.69;;;11.66;100.00
3796;BME280;1913;50.660;7.834;2023-05-12T00:44:54;150921.44;;;11.66;100.00
3796;BME280;1913;50.660;7.834;2023-05-12T00:47:19;150921.44;;;11.66;100.00
3796;BME280;1913;50.660;7.834;2023-05-12T00:49:46;150903.84;;;11.59;100.00
3796;BME280;1913;50.660;7.834;2023-05-12T00:52:11;150906.38;;;11.60;100.00
3796;BME280;1913;50.660;7.834;2023-05-12T00:54:37;150908.88;;;11.61;100.00
3796;BME280;1913;50.660;7.834;2023-05-12T00:57:04;150873.69;;;11.46;100.00
3796;BME280;1913;50.660;7.834;2023-05-12T00:59:30;150868.63;;;11.44;100.00
3796;BME280;1913;50.660;7.834;2023-05-12T01:01:56;150859.81;;;11.41;100.00
3796;BME280;1913;50.660;7.834;2023-05-12T01:04:21;150876.19;;;11.47;100.00
3796;BME280;1913;50.660;7.834;2023-05-12T01:06:50;150854.81;;;11.39;100.00
3796;BME280;1913;50.660;7.834;2023-05-12T01:09:17;150853.53;;;11.38;100.00
3796;BME280;1913;50.660;7.834;2023-05-12T01:11:44;150867.38;;;11.44;100.00
3796;BME280;1913;50.660;7.834;2023-05-12T01:14:09;150849.78;;;11.37;100.00
3796;BME280;1913;50.660;7.834;2023-05-12T01:16:41;150863.63;;;11.42;100.00
3796;BME280;1913;50.660;7.834;2023-05-12T01:19:14;150861.06;;;11.41;100.00
3796;BME280;1913;50.660;7.834;2023-05-12T01:21:43;150859.81;;;11.41;100.00
3796;BME280;1913;50.660;7.834;2023-05-12T01:24:10;150864.88;;;11.43;100.00
3796;BME280;1913;50.660;7.834;2023-05-12T01:26:37;150853.53;;;11.38;100.00
3796;BME280;1913;50.660;7.834;2023-05-12T01:29:03;150864.88;;;11.43;100.00
3796;BME280;1913;50.660;7.834;2023-05-12T01:31:49;150854.81;;;11.39;100.00
3796;BME280;1913;50.660;7.834;2023-05-12T01:34:35;150810.81;;;11.21;100.00
3796;BME280;1913;50.660;7.834;2023-05-12T01:37:20;150805.78;;;11.19;100.00
3796;BME280;1913;50.660;7.834;2023-05-12T01:40:06;150742.94;;;10.93;100.00
3796;BME280;1913;50.660;7.834;2023-05-12T01:42:38;150756.75;;;10.99;100.00
3796;BME280;1913;50.660;7.834;2023-05-12T01:45:24;150755.50;;;10.98;100.00
3796;BME280;1913;50.660;7.834;2023-05-12T01:48:09;150750.50;;;10.96;100.00
3796;BME280;1913;50.660;7.834;2023-05-12T01:50:35;150740.44;;;10.92;100.00
3796;BME280;1913;50.660;7.834;2023-05-12T01:53:21;150754.22;;;10.98;100.00
3796;BME280;1913;50.660;7.834;2023-05-12T01:55:46;150705.25;;;10.78;100.00
3796;BME280;1913;50.660;7.834;2023-05-12T01:58:12;150705.25;;;10.78;100.00
3796;BME280;1913;50.660;7.834;2023-05-12T02:00:37;150668.78;;;10.63;100.00
3796;BME280;1913;50.660;7.834;2023-05-12T02:03:03;150697.69;;;10.75;100.00
3796;BME280;1913;50.660;7.834;2023-05-12T02:05:28;150670.06;;;10.64;100.00
3796;BME280;1913;50.660;7.834;2023-05-12T02:07:54;150659.97;;;10.60;100.00
3796;BME280;1913;50.660;7.834;2023-05-12T02:10:19;150670.06;;;10.64;100.00
3796;BME280;1913;50.660;7.834;2023-05-12T02:12:45;150666.28;;;10.62;100.00
3796;BME280;1913;50.660;7.834;2023-05-12T02:15:10;150657.47;;;10.59;100.00
3796;BME280;1913;50.660;7.834;2023-05-12T02:17:35;150647.44;;;10.54;100.00
3796;BME280;1913;50.660;7.834;2023-05-12T02:20:01;150613.50;;;10.41;100.00
3796;BME280;1913;50.660;7.834;2023-05-12T02:22:26;150623.53;;;10.45;100.00
3796;BME280;1913;50.660;7.834;2023-05-12T02:24:52;150618.53;;;10.43;100.00
3796;BME280;1913;50.660;7.834;2023-05-12T02:27:17;150604.69;;;10.37;100.00
3796;BME280;1913;50.660;7.834;2023-05-12T02:29:43;150603.44;;;10.37;100.00
3796;BME280;1913;50.660;7.834;2023-05-12T02:32:08;150600.94;;;10.36;100.00
3796;BME280;1913;50.660;7.834;2023-05-12T02:34:33;150600.94;;;10.36;100.00
3796;BME280;1913;50.660;7.834;2023-05-12T02:36:59;150595.91;;;10.34;100.00
3796;BME280;1913;50.660;7.834;2023-05-12T02:39:24;150608.44;;;10.39;100.00
3796;BME280;1913;50.660;7.834;2023-05-12T02:41:50;150587.13;;;10.30;100.00
3796;BME280;1913;50.660;7.834;2023-05-12T02:44:15;150589.59;;;10.31;100.00
3796;BME280;1913;50.660;7.834;2023-05-12T02:46:42;150592.16;;;10.32;100.00
3796;BME280;1913;50.660;7.834;2023-05-12T02:49:07;150573.22;;;10.24;100.00
3796;BME280;1913;50.660;7.834;2023-05-12T02:51:33;150585.88;;;10.29;100.00
3796;BME280;1913;50.660;7.834;2023-05-12T02:53:58;150587.13;;;10.30;100.00
3796;BME280;1913;50.660;7.834;2023-05-12T02:56:24;150571.97;;;10.24;100.00
3796;BME280;1913;50.660;7.834;2023-05-12T02:58:50;150569.47;;;10.23;100.00
3796;BME280;1913;50.660;7.834;2023-05-12T03:01:15;150555.63;;;10.17;100.00
3796;BME280;1913;50.660;7.834;2023-05-12T03:03:41;150554.38;;;10.17;100.00
3796;BME280;1913;50.660;7.834;2023-05-12T03:06:07;150553.13;;;10.16;100.00
3796;BME280;1913;50.660;7.834;2023-05-12T03:08:33;150538.06;;;10.10;100.00
3796;BME280;1913;50.660;7.834;2023-05-12T03:10:59;150516.72;;;10.01;100.00
3796;BME280;1913;50.660;7.834;2023-05-12T03:13:25;150504.19;;;9.96;100.00
3796;BME280;1913;50.660;7.834;2023-05-12T03:15:51;150512.97;;;10.00;100.00
3796;BME280;1913;50.660;7.834;2023-05-12T03:18:16;150510.44;;;9.99;100.00
3796;BME280;1913;50.660;7.834;2023-05-12T03:20:42;150524.25;;;10.04;100.00
3796;BME280;1913;50.660;7.834;2023-05-12T03:23:08;150519.22;;;10.02;100.00
3796;BME280;1913;50.660;7.834;2023-05-12T03:25:53;150514.22;;;10.00;100.00
3796;BME280;1913;50.660;7.834;2023-05-12T03:28:19;150504.19;;;9.96;100.00
3796;BME280;1913;50.660;7.834;2023-05-12T03:31:07;150499.13;;;9.94;100.00
3796;BME280;1913;50.660;7.834;2023-05-12T03:33:32;150525.50;;;10.05;100.00
3796;BME280;1913;50.660;7.834;2023-05-12T03:36:18;150509.19;;;9.98;100.00
3796;BME280;1913;50.660;7.834;2023-05-12T03:38:47;150511.69;;;9.99;100.00
3796;BME280;1913;50.660;7.834;2023-05-12T03:41:32;150505.44;;;9.97;100.00
3796;BME280;1913;50.660;7.834;2023-05-12T03:44:18;150504.19;;;9.96;100.00
3796;BME280;1913;50.660;7.834;2023-05-12T03:46:44;150516.72;;;10.01;100.00
3796;BME280;1913;50.660;7.834;2023-05-12T03:49:09;150500.38;;;9.95;100.00
3796;BME280;1913;50.660;7.834;2023-05-12T03:51:35;150501.63;;;9.95;100.00
3796;BME280;1913;50.660;7.834;2023-05-12T03:54:00;150497.88;;;9.94;100.00
3796;BME280;1913;50.660;7.834;2023-05-12T03:56:25;150484.06;;;9.88;100.00
3796;BME280;1913;50.660;7.834;2023-05-12T03:58:52;150506.69;;;9.97;100.00
3796;BME280;1913;50.660;7.834;2023-05-12T04:01:17;150482.81;;;9.88;100.00
3796;BME280;1913;50.660;7.834;2023-05-12T04:03:43;150479.06;;;9.86;100.00
3796;BME280;1913;50.660;7.834;2023-05-12T04:06:08;150489.09;;;9.90;100.00
3796;BME280;1913;50.660;7.834;2023-05-12T04:08:34;150481.56;;;9.87;100.00
3796;BME280;1913;50.660;7.834;2023-05-12T04:11:00;150472.75;;;9.83;100.00
3796;BME280;1913;50.660;7.834;2023-05-12T04:13:27;150470.25;;;9.82;100.00
3796;BME280;1913;50.660;7.834;2023-05-12T04:15:57;150489.09;;;9.90;100.00
3796;BME280;1913;50.660;7.834;2023-05-12T04:18:24;150492.84;;;9.92;100.00
3796;BME280;1913;50.660;7.834;2023-05-12T04:20:49;150482.81;;;9.88;100.00
3796;BME280;1913;50.660;7.834;2023-05-12T04:23:14;150497.88;;;9.94;100.00
3796;BME280;1913;50.660;7.834;2023-05-12T04:25:41;150500.38;;;9.95;100.00
3796;BME280;1913;50.660;7.834;2023-05-12T04:28:07;150500.38;;;9.95;100.00
3796;BME280;1913;50.660;7.834;2023-05-12T04:30:33;150500.38;;;9.95;100.00
3796;BME280;1913;50.660;7.834;2023-05-12T04:32:59;150504.19;;;9.96;100.00
3796;BME280;1913;50.660;7.834;2023-05-12T04:35:26;150485.31;;;9.89;100.00
3796;BME280;1913;50.660;7.834;2023-05-12T04:37:51;150504.19;;;9.96;100.00
3796;BME280;1913;50.660;7.834;2023-05-12T04:40:17;150501.63;;;9.95;100.00
3796;BME280;1913;50.660;7.834;2023-05-12T04:42:42;150494.09;;;9.92;100.00
3796;BME280;1913;50.660;7.834;2023-05-12T04:45:08;150496.63;;;9.93;100.00
3796;BME280;1913;50.660;7.834;2023-05-12T04:47:33;150509.19;;;9.98;100.00
3796;BME280;1913;50.660;7.834;2023-05-12T04:49:59;150504.19;;;9.96;100.00
3796;BME280;1913;50.660;7.834;2023-05-12T04:52:25;150511.69;;;9.99;100.00
3796;BME280;1913;50.660;7.834;2023-05-12T04:54:50;150523.00;;;10.04;100.00
3796;BME280;1913;50.660;7.834;2023-05-12T04:57:16;150533.06;;;10.08;100.00
3796;BME280;1913;50.660;7.834;2023-05-12T04:59:43;150539.34;;;10.11;100.00
3796;BME280;1913;50.660;7.834;2023-05-12T05:02:08;150536.81;;;10.10;100.00
3796;BME280;1913;50.660;7.834;2023-05-12T05:04:35;150549.38;;;10.15;100.00
3796;BME280;1913;50.660;7.834;2023-05-12T05:07:00;150554.38;;;10.17;100.00
3796;BME280;1913;50.660;7.834;2023-05-12T05:09:26;150571.97;;;10.24;100.00
3796;BME280;1913;50.660;7.834;2023-05-12T05:11:51;150603.44;;;10.37;100.00
3796;BME280;1913;50.660;7.834;2023-05-12T05:14:37;150584.63;;;10.29;100.00
3796;BME280;1913;50.660;7.834;2023-05-12T05:17:23;150612.25;;;10.40;100.00
3796;BME280;1913;50.660;7.834;2023-05-12T05:20:08;150624.78;;;10.45;100.00
3796;BME280;1913;50.660;7.834;2023-05-12T05:22:37;150642.38;;;10.52;100.00
3796;BME280;1913;50.660;7.834;2023-05-12T05:25:23;150639.88;;;10.51;100.00
3796;BME280;1913;50.660;7.834;2023-05-12T05:27:52;150639.88;;;10.51;100.00
3796;BME280;1913;50.660;7.834;2023-05-12T05:30:39;150659.97;;;10.60;100.00
3796;BME280;1913;50.660;7.834;2023-05-12T05:33:25;150714.03;;;10.82;100.00
3796;BME280;1913;50.660;7.834;2023-05-12T05:36:10;150712.75;;;10.81;100.00
3796;BME280;1913;50.660;7.834;2023-05-12T05:38:55;150756.75;;;10.99;100.00
3796;BME280;1913;50.660;7.834;2023-05-12T05:41:21;150785.69;;;11.11;100.00
3796;BME280;1913;50.660;7.834;2023-05-12T05:43:47;150793.22;;;11.14;100.00
3796;BME280;1913;50.660;7.834;2023-05-12T05:46:13;150800.72;;;11.17;100.00
3796;BME280;1913;50.660;7.834;2023-05-12T05:48:38;150809.53;;;11.20;100.00
3796;BME280;1913;50.660;7.834;2023-05-12T05:51:03;150908.88;;;11.61;100.00
3796;BME280;1913;50.660;7.834;2023-05-12T05:53:30;150961.69;;;11.82;100.00
3796;BME280;1913;50.660;7.834;2023-05-12T05:55:55;150957.91;;;11.81;100.00
3796;BME280;1913;50.660;7.834;2023-05-12T05:58:20;150960.44;;;11.82;100.00
3796;BME280;1913;50.660;7.834;2023-05-12T06:00:46;150913.88;;;11.63;100.00
3796;BME280;1913;50.660;7.834;2023-05-12T06:03:11;150952.91;;;11.79;100.00
3796;BME280;1913;50.660;7.834;2023-05-12T06:05:37;150956.66;;;11.80;100.00
3796;BME280;1913;50.660;7.834;2023-05-12T06:08:03;150959.19;;;11.81;100.00
3796;BME280;1913;50.660;7.834;2023-05-12T06:10:30;150882.47;;;11.50;100.00
3796;BME280;1913;50.660;7.834;2023-05-12T06:12:55;150907.63;;;11.60;100.00
3796;BME280;1913;50.660;7.834;2023-05-12T06:15:20;150886.22;;;11.51;100.00
3796;BME280;1913;50.660;7.834;2023-05-12T06:17:46;150931.50;;;11.70;100.00
3796;BME280;1913;50.660;7.834;2023-05-12T06:20:12;150915.19;;;11.63;100.00
3796;BME280;1913;50.660;7.834;2023-05-12T06:22:37;150900.09;;;11.57;100.00
3796;BME280;1913;50.660;7.834;2023-05-12T06:25:03;150934.03;;;11.71;100.00
3796;BME280;1913;50.660;7.834;2023-05-12T06:27:29;150937.78;;;11.72;100.00
3796;BME280;1913;50.660;7.834;2023-05-12T06:29:55;150926.50;;;11.68;100.00
3796;BME280;1913;50.660;7.834;2023-05-12T06:32:20;150951.66;;;11.78;100.00
3796;BME280;1913;50.660;7.834;2023-05-12T06:34:46;150991.91;;;11.94;100.00
3796;BME280;1913;50.660;7.834;2023-05-12T06:37:11;150980.59;;;11.90;100.00
3796;BME280;1913;50.660;7.834;2023-05-12T06:39:38;151008.28;;;12.01;100.00
3796;BME280;1913;50.660;7.834;2023-05-12T06:42:03;150952.91;;;11.79;100.00
3796;BME280;1913;50.660;7.834;2023-05-12T06:44:30;150961.69;;;11.82;100.00
3796;BME280;1913;50.660;7.834;2023-05-12T06:46:55;151004.50;;;12.00;100.00
3796;BME280;1913;50.660;7.834;2023-05-12T06:49:21;151004.50;;;12.00;100.00
3796;BME280;1913;50.660;7.834;2023-05-12T06:51:46;150978.09;;;11.89;100.00
3796;BME280;1913;50.660;7.834;2023-05-12T06:54:12;150944.09;;;11.75;100.00
3796;BME280;1913;50.660;7.834;2023-05-12T06:56:37;150929.00;;;11.69;100.00
3796;BME280;1913;50.660;7.834;2023-05-12T06:59:03;150946.59;;;11.76;100.00
3796;BME280;1913;50.660;7.834;2023-05-12T07:01:30;150969.28;;;11.85;100.00
3796;BME280;1913;50.660;7.834;2023-05-12T07:03:57;150979.34;;;11.89;100.00
3796;BME280;1913;50.660;7.834;2023-05-12T07:06:23;150976.84;;;11.88;100.00
3796;BME280;1913;50.660;7.834;2023-05-12T07:09:11;150984.34;;;11.91;100.00
3796;BME280;1913;50.660;7.834;2023-05-12T07:11:57;151020.88;;;12.06;100.00
3796;BME280;1913;50.660;7.834;2023-05-12T07:14:43;151034.69;;;12.12;100.00
3796;BME280;1913;50.660;7.834;2023-05-12T07:17:28;151047.28;;;12.17;100.00
3796;BME280;1913;50.660;7.834;2023-05-12T07:20:14;151042.22;;;12.15;100.00
3796;BME280;1913;50.660;7.834;2023-05-12T07:22:40;151074.97;;;12.28;100.00
3796;BME280;1913;50.660;7.834;2023-05-12T07:25:25;151007.03;;;12.01;100.00
3796;BME280;1913;50.660;7.834;2023-05-12T07:28:12;151062.34;;;12.23;100.00
3796;BME280;1913;50.660;7.834;2023-05-12T07:30:39;151101.38;;;12.39;100.00
3796;BME280;1913;50.660;7.834;2023-05-12T07:33:24;151131.53;;;12.51;100.00
3796;BME280;1913;50.660;7.834;2023-05-12T07:36:06;151137.84;;;12.54;100.00
3796;BME280;1913;50.660;7.834;2023-05-12T07:38:33;151186.94;;;12.74;100.00
3796;BME280;1913;50.660;7.834;2023-05-12T07:40:59;151212.06;;;12.84;100.00
3796;BME280;1913;50.660;7.834;2023-05-12T07:43:25;151229.69;;;12.91;100.00
3796;BME280;1913;50.660;7.834;2023-05-12T07:45:50;151283.84;;;13.13;100.00
3796;BME280;1913;50.660;7.834;2023-05-12T07:48:16;151246.06;;;12.98;100.00
3796;BME280;1913;50.660;7.834;2023-05-12T07:50:41;151275.03;;;13.09;100.00
3796;BME280;1913;50.660;7.834;2023-05-12T07:53:06;151252.38;;;13.00;100.00
3796;BME280;1913;50.660;7.834;2023-05-12T07:55:32;151278.78;;;13.11;100.00
3796;BME280;1913;50.660;7.834;2023-05-12T07:57:58;151243.56;;;12.97;100.00
3796;BME280;1913;50.660;7.834;2023-05-12T08:00:23;151281.28;;;13.12;100.00
3796;BME280;1913;50.660;7.834;2023-05-12T08:02:49;151322.91;;;13.29;100.00
3796;BME280;1913;50.660;7.834;2023-05-12T08:05:14;151383.34;;;13.53;100.00
3796;BME280;1913;50.660;7.834;2023-05-12T08:07:39;151431.16;;;13.73;100.00
3796;BME280;1913;50.660;7.834;2023-05-12T08:10:08;151416.09;;;13.67;100.00
3796;BME280;1913;50.660;7.834;2023-05-12T08:12:34;151513.03;;;14.06;100.00
3796;BME280;1913;50.660;7.834;2023-05-12T08:15:00;151480.28;;;13.93;100.00
3796;BME280;1913;50.660;7.834;2023-05-12T08:17:25;151581.03;;;14.33;100.00
3796;BME280;1913;50.660;7.834;2023-05-12T08:19:50;151695.78;;;14.80;100.00
3796;BME280;1913;50.660;7.834;2023-05-12T08:22:16;151840.69;;;15.39;100.00
3796;BME280;1913;50.660;7.834;2023-05-12T08:24:41;151946.63;;;15.82;100.00
3796;BME280;1913;50.660;7.834;2023-05-12T08:27:07;152017.25;;;16.10;100.00
3796;BME280;1913;50.660;7.834;2023-05-12T08:29:33;151835.63;;;15.37;100.00
3796;BME280;1913;50.660;7.834;2023-05-12T08:31:59;151786.50;;;15.17;100.00
3796;BME280;1913;50.660;7.834;2023-05-12T08:34:24;151749.94;;;15.02;100.00
3796;BME280;1913;50.660;7.834;2023-05-12T08:36:53;151790.25;;;15.18;100.00
3796;BME280;1913;50.660;7.834;2023-05-12T08:39:19;151787.75;;;15.17;100.00
3796;BME280;1913;50.660;7.834;2023-05-12T08:42:00;151865.91;;;15.49;100.00
3796;BME280;1913;50.660;7.834;2023-05-12T08:44:32;152076.53;;;16.34;100.00
3796;BME280;1913;50.660;7.834;2023-05-12T08:46:59;152166.09;;;16.70;100.00
3796;BME280;1913;50.660;7.834;2023-05-12T08:49:28;152293.59;;;17.22;100.00
3796;BME280;1913;50.660;7.834;2023-05-12T08:51:55;152312.53;;;17.30;100.00
3796;BME280;1913;50.660;7.834;2023-05-12T08:54:26;152351.63;;;17.45;100.00
3796;BME280;1913;50.660;7.834;2023-05-12T08:56:52;152413.47;;;17.70;100.00
3796;BME280;1913;50.660;7.834;2023-05-12T08:59:18;152337.78;;;17.40;100.00
3796;BME280;1913;50.660;7.834;2023-05-12T09:01:44;152469.13;;;17.93;100.00
3796;BME280;1913;50.660;7.834;2023-05-12T09:04:12;152446.38;;;17.84;100.00
3796;BME280;1913;50.660;7.834;2023-05-12T09:06:59;152456.47;;;17.88;100.00
3796;BME280;1913;50.660;7.834;2023-05-12T09:09:46;152316.28;;;17.31;100.00
3796;BME280;1913;50.660;7.834;2023-05-12T09:12:15;152172.41;;;16.73;100.00
3796;BME280;1913;50.660;7.834;2023-05-12T09:15:06;152140.84;;;16.60;100.00
3796;BME280;1913;50.660;7.834;2023-05-12T09:17:34;152047.53;;;16.22;100.00
3796;BME280;1913;50.660;7.834;2023-05-12T09:20:20;152065.19;;;16.30;100.00
3796;BME280;1913;50.660;7.834;2023-05-12T09:23:17;152021.06;;;16.12;100.00
3796;BME280;1913;50.660;7.834;2023-05-12T09:26:03;152014.75;;;16.09;100.00
3796;BME280;1913;50.660;7.834;2023-05-12T09:28:48;151995.81;;;16.01;100.00
3796;BME280;1913;50.660;7.834;2023-05-12T09:31:34;151975.63;;;15.93;100.00
3796;BME280;1913;50.660;7.834;2023-05-12T09:34:08;152003.41;;;16.04;100.00
3796;BME280;1913;50.660;7.834;2023-05-12T09:36:34;152072.72;;;16.33;100.00
3796;BME280;1913;50.660;7.834;2023-05-12T09:39:07;152124.44;;;16.53;100.00
3796;BME280;1913;50.660;7.834;2023-05-12T09:41:40;152081.56;;;16.36;100.00
3796;BME280;1913;50.660;7.834;2023-05-12T09:44:06;152056.38;;;16.26;100.00
3796;BME280;1913;50.660;7.834;2023-05-12T09:46:33;152091.69;;;16.40;100.00
3796;BME280;1913;50.660;7.834;2023-05-12T09:48:58;152070.22;;;16.32;100.00
3796;BME280;1913;50.660;7.834;2023-05-12T09:51:27;152070.22;;;16.32;100.00
3796;BME280;1913;50.660;7.834;2023-05-12T09:53:53;152198.97;;;16.84;100.00
3796;BME280;1913;50.660;7.834;2023-05-12T09:56:19;152166.09;;;16.70;100.00
3796;BME280;1913;50.660;7.834;2023-05-12T09:58:47;152246.88;;;17.03;100.00
3796;BME280;1913;50.660;7.834;2023-05-12T10:01:17;152332.72;;;17.38;100.00
3796;BME280;1913;50.660;7.834;2023-05-12T10:03:55;152368.03;;;17.52;100.00
3796;BME280;1913;50.660;7.834;2023-05-12T10:08:53;152185.06;;;16.78;100.00
3796;BME280;1913;50.660;7.834;2023-05-12T10:11:19;152272.13;;;17.13;100.00
3796;BME280;1913;50.660;7.834;2023-05-12T10:13:46;152333.97;;;17.38;100.00
3796;BME280;1913;50.660;7.834;2023-05-12T10:16:12;152423.56;;;17.75;100.00
3796;BME280;1913;50.660;7.834;2023-05-12T10:18:41;152400.88;;;17.65;100.00
3796;BME280;1913;50.660;7.834;2023-05-12T10:21:07;152248.13;;;17.04;98.00
3796;BME280;1913;50.660;7.834;2023-05-12T10:23:34;152053.81;;;16.25;100.00
3796;BME280;1913;50.660;7.834;2023-05-12T10:26:01;152014.75;;;16.09;100.00
3796;BME280;1913;50.660;7.834;2023-05-12T10:28:29;152037.41;;;16.18;100.00
3796;BME280;1913;50.660;7.834;2023-05-12T10:30:56;152032.38;;;16.16;100.00
3796;BME280;1913;50.660;7.834;2023-05-12T10:33:22;152133.28;;;16.57;100.00
3796;BME280;1913;50.660;7.834;2023-05-12T10:35:50;152196.44;;;16.83;100.00
3796;BME280;1913;50.660;7.834;2023-05-12T10:38:16;152255.72;;;17.07;100.00
3796;BME280;1913;50.660;7.834;2023-05-12T10:40:50;152331.44;;;17.37;97.84
3796;BME280;1913;50.660;7.834;2023-05-12T10:43:23;152354.16;;;17.46;99.70
3796;BME280;1913;50.660;7.834;2023-05-12T10:46:23;152303.69;;;17.26;98.27
3796;BME280;1913;50.660;7.834;2023-05-12T10:49:01;152356.69;;;17.47;98.64
3796;BME280;1913;50.660;7.834;2023-05-12T10:51:46;152398.31;;;17.64;96.67
3796;BME280;1913;50.660;7.834;2023-05-12T10:54:24;152302.44;;;17.26;90.88
3796;BME280;1913;50.660;7.834;2023-05-12T10:56:50;152400.88;;;17.65;96.17
3796;BME280;1913;50.660;7.834;2023-05-12T10:59:20;152374.38;;;17.55;96.86
3796;BME280;1913;50.660;7.834;2023-05-12T11:02:01;152333.97;;;17.38;97.50
3796;BME280;1913;50.660;7.834;2023-05-12T11:04:48;152308.72;;;17.28;99.19
3796;BME280;1913;50.660;7.834;2023-05-12T11:07:15;152293.59;;;17.22;100.00
3796;BME280;1913;50.660;7.834;2023-05-12T11:10:02;152328.94;;;17.36;100.00
3796;BME280;1913;50.660;7.834;2023-05-12T11:12:48;152330.19;;;17.37;98.55
3796;BME280;1913;50.660;7.834;2023-05-12T11:15:33;152375.63;;;17.55;97.87
3796;BME280;1913;50.660;7.834;2023-05-12T11:18:20;152469.13;;;17.93;100.00
3796;BME280;1913;50.660;7.834;2023-05-12T11:21:09;152486.78;;;18.00;98.94
3796;BME280;1913;50.660;7.834;2023-05-12T11:23:56;152533.50;;;18.19;88.32
3796;BME280;1913;50.660;7.834;2023-05-12T11:26:22;152543.59;;;18.23;92.92
3796;BME280;1913;50.660;7.834;2023-05-12T11:28:47;152470.38;;;17.93;85.24
3796;BME280;1913;50.660;7.834;2023-05-12T11:31:20;152480.47;;;17.98;90.24
3796;BME280;1913;50.660;7.834;2023-05-12T11:33:46;152466.56;;;17.92;83.19
3796;BME280;1913;50.660;7.834;2023-05-12T11:36:12;152352.88;;;17.46;91.67
3796;BME280;1913;50.660;7.834;2023-05-12T11:38:37;152323.88;;;17.34;93.75
3796;BME280;1913;50.660;7.834;2023-05-12T11:41:03;152273.38;;;17.14;94.16
3796;BME280;1913;50.660;7.834;2023-05-12T11:43:28;152311.28;;;17.29;94.24
3796;BME280;1913;50.660;7.834;2023-05-12T11:45:54;152299.88;;;17.24;99.08
3796;BME280;1913;50.660;7.834;2023-05-12T11:48:19;152375.63;;;17.55;95.92
3796;BME280;1913;50.660;7.834;2023-05-12T11:50:47;152210.28;;;16.88;94.66
3796;BME280;1913;50.660;7.834;2023-05-12T11:53:16;152219.13;;;16.92;96.80
3796;BME280;1913;50.660;7.834;2023-05-12T11:55:55;152250.69;;;17.05;94.42
3796;BME280;1913;50.660;7.834;2023-05-12T11:58:25;152169.84;;;16.72;95.81
3796;BME280;1913;50.660;7.834;2023-05-12T12:00:53;152241.84;;;17.01;97.81
3796;BME280;1913;50.660;7.834;2023-05-12T12:03:19;152220.38;;;16.92;97.93
3796;BME280;1913;50.660;7.834;2023-05-12T12:05:59;152298.63;;;17.24;100.00
3796;BME280;1913;50.660;7.834;2023-05-12T12:08:25;152297.38;;;17.23;97.81
3796;BME280;1913;50.660;7.834;2023-05-12T12:10:51;152282.22;;;17.17;96.36
3796;BME280;1913;50.660;7.834;2023-05-12T12:13:21;152340.28;;;17.41;93.87
3796;BME280;1913;50.660;7.834;2023-05-12T12:15:48;152416.00;;;17.71;85.53
3796;BME280;1913;50.660;7.834;2023-05-12T12:18:13;152375.63;;;17.55;94.48
3796;BME280;1913;50.660;7.834;2023-05-12T12:20:41;152374.38;;;17.55;92.11
3796;BME280;1913;50.660;7.834;2023-05-12T12:23:07;152320.09;;;17.33;88.22
3796;BME280;1913;50.660;7.834;2023-05-12T12:25:33;152283.47;;;17.18;94.39
3796;BME280;1913;50.660;7.834;2023-05-12T12:27:58;152283.47;;;17.18;89.91
3796;BME280;1913;50.660;7.834;2023-05-12T12:30:24;152283.47;;;17.18;95.17
3796;BME280;1913;50.660;7.834;2023-05-12T12:32:50;152326.38;;;17.35;91.99
3796;BME280;1913;50.660;7.834;2023-05-12T12:35:15;152335.22;;;17.39;95.08
3796;BME280;1913;50.660;7.834;2023-05-12T12:37:41;152399.63;;;17.65;87.41
3796;BME280;1913;50.660;7.834;2023-05-12T12:40:07;152383.22;;;17.58;86.63
3796;BME280;1913;50.660;7.834;2023-05-12T12:42:35;152446.38;;;17.84;89.91
3796;BME280;1913;50.660;7.834;2023-05-12T12:45:03;152537.25;;;18.21;87.89
3796;BME280;1913;50.660;7.834;2023-05-12T12:47:30;152554.94;;;18.28;85.45
3796;BME280;1913;50.660;7.834;2023-05-12T12:49:56;152610.53;;;18.50;84.42
3796;BME280;1913;50.660;7.834;2023-05-12T12:52:22;152554.94;;;18.28;90.66
3796;BME280;1913;50.660;7.834;2023-05-12T12:55:07;152494.31;;;18.03;84.86
3796;BME280;1913;50.660;7.834;2023-05-12T12:57:42;152578.94;;;18.37;88.76
3796;BME280;1913;50.660;7.834;2023-05-12T13:00:28;152567.59;;;18.33;86.85
3796;BME280;1913;50.660;7.834;2023-05-12T13:02:53;152667.41;;;18.73;85.47
3796;BME280;1913;50.660;7.834;2023-05-12T13:05:39;152657.25;;;18.69;74.21
3796;BME280;1913;50.660;7.834;2023-05-12T13:08:24;152710.34;;;18.90;80.12
3796;BME280;1913;50.660;7.834;2023-05-12T13:10:50;152661.03;;;18.71;75.34
3796;BME280;1913;50.660;7.834;2023-05-12T13:13:35;152680.00;;;18.78;81.89
3796;BME280;1913;50.660;7.834;2023-05-12T13:16:22;152734.38;;;19.00;78.42
3796;BME280;1913;50.660;7.834;2023-05-12T13:18:47;152759.66;;;19.10;73.93